TAR719 LFPO-DTTA
Flight info
| Callsign | TAR719 |
|---|---|
| Flight time | 2h 0m |
| Altitude | 35000 |
| Route | LATRA DCT LAMUT DCT UTUVA DCT TITVA DCT NOQAS/N0447F370 DCT OTROT DCT RETNO DCT KOLON DCT LOKDU DCT PELOS DCT IPROM DCT CAR P161 NOLSI/N0410F230 P161 MEDAR |
| Aircraft | A320/M-SDE3FGHIRWY/LB1 |
Departure
| Time | 2026-05-03 23:48 |
|---|---|
| Airport | Paris-Orly Airport (LFPO) |
Arrival
| Time | 2026-05-04 01:48 |
|---|---|
| Airport | Tunis Carthage International Airport (DTTA) |
| Time | Latitude | Longitude | Altitude | Speed | Heading |
|---|---|---|---|---|---|
| 2026-05-03 23:28 | 48.72731 | 2.36839 | 290 ft | 0 kts | 22° |
| 2026-05-03 23:39 | 48.72729 | 2.36837 | 290 ft | 3 kts | 22° |
| 2026-05-03 23:39 | 48.72704 | 2.36823 | 294 ft | 4 kts | 18° |
| 2026-05-03 23:39 | 48.72679 | 2.36811 | 295 ft | 4 kts | 12° |
| 2026-05-03 23:39 | 48.72652 | 2.36805 | 295 ft | 4 kts | 356° |
| 2026-05-03 23:40 | 48.72632 | 2.36814 | 296 ft | 4 kts | 290° |
| 2026-05-03 23:40 | 48.72631 | 2.36825 | 295 ft | 1 kts | 251° |
| 2026-05-03 23:40 | 48.72631 | 2.36827 | 296 ft | 0 kts | 251° |
| 2026-05-03 23:41 | 48.72626 | 2.36805 | 295 ft | 6 kts | 251° |
| 2026-05-03 23:42 | 48.72614 | 2.36753 | 291 ft | 5 kts | 251° |
| 2026-05-03 23:42 | 48.72601 | 2.36702 | 295 ft | 10 kts | 247° |
| 2026-05-03 23:42 | 48.72564 | 2.36552 | 293 ft | 17 kts | 255° |
| 2026-05-03 23:42 | 48.72532 | 2.36376 | 295 ft | 18 kts | 255° |
| 2026-05-03 23:43 | 48.72499 | 2.36186 | 296 ft | 19 kts | 255° |
| 2026-05-03 23:43 | 48.72467 | 2.35982 | 292 ft | 20 kts | 266° |
| 2026-05-03 23:43 | 48.72478 | 2.35791 | 296 ft | 13 kts | 272° |
| 2026-05-03 23:43 | 48.72461 | 2.35662 | 294 ft | 12 kts | 259° |
| 2026-05-03 23:44 | 48.72500 | 2.35581 | 292 ft | 10 kts | 341° |
| 2026-05-03 23:44 | 48.72569 | 2.35550 | 291 ft | 14 kts | 343° |
| 2026-05-03 23:44 | 48.72670 | 2.35507 | 291 ft | 14 kts | 345° |
| 2026-05-03 23:44 | 48.72762 | 2.35470 | 292 ft | 14 kts | 345° |
| 2026-05-03 23:45 | 48.72875 | 2.35429 | 291 ft | 15 kts | 358° |
| 2026-05-03 23:45 | 48.72939 | 2.35511 | 293 ft | 15 kts | 27° |
| 2026-05-03 23:45 | 48.73036 | 2.35600 | 293 ft | 17 kts | 55° |
| 2026-05-03 23:45 | 48.73098 | 2.35744 | 295 ft | 16 kts | 59° |
| 2026-05-03 23:46 | 48.73155 | 2.35884 | 295 ft | 15 kts | 58° |
| 2026-05-03 23:46 | 48.73209 | 2.36004 | 295 ft | 13 kts | 54° |
| 2026-05-03 23:46 | 48.73265 | 2.36094 | 294 ft | 11 kts | 19° |
| 2026-05-03 23:46 | 48.73331 | 2.36074 | 295 ft | 9 kts | 344° |
| 2026-05-03 23:47 | 48.73404 | 2.36096 | 292 ft | 14 kts | 15° |
| 2026-05-03 23:47 | 48.73490 | 2.36071 | 294 ft | 12 kts | 332° |
| 2026-05-03 23:47 | 48.73512 | 2.35978 | 292 ft | 14 kts | 240° |
| 2026-05-03 23:47 | 48.73365 | 2.35560 | 291 ft | 80 kts | 241° |
| 2026-05-03 23:48 | 48.73000 | 2.34531 | 293 ft | 137 kts | 242° |
| 2026-05-03 23:48 | 48.72499 | 2.33120 | 533 ft | 155 kts | 240° |
| 2026-05-03 23:48 | 48.72001 | 2.31713 | 1256 ft | 149 kts | 241° |
| 2026-05-03 23:48 | 48.71481 | 2.30394 | 1927 ft | 144 kts | 237° |
| 2026-05-03 23:49 | 48.70921 | 2.29127 | 2418 ft | 149 kts | 235° |
| 2026-05-03 23:49 | 48.70310 | 2.27738 | 2671 ft | 170 kts | 236° |
| 2026-05-03 23:49 | 48.69620 | 2.26133 | 2915 ft | 193 kts | 237° |
| 2026-05-03 23:49 | 48.68846 | 2.24328 | 3150 ft | 217 kts | 237° |
| 2026-05-03 23:50 | 48.67980 | 2.22306 | 3491 ft | 241 kts | 237° |
| 2026-05-03 23:50 | 48.67364 | 2.20865 | 3860 ft | 250 kts | 237° |
| 2026-05-03 23:50 | 48.65668 | 2.18478 | 4912 ft | 258 kts | 200° |
| 2026-05-03 23:50 | 48.63883 | 2.18331 | 5710 ft | 266 kts | 168° |
| 2026-05-03 23:51 | 48.62146 | 2.19369 | 6560 ft | 271 kts | 155° |
| 2026-05-03 23:51 | 48.60511 | 2.20815 | 7362 ft | 274 kts | 150° |
| 2026-05-03 23:51 | 48.58909 | 2.22353 | 8149 ft | 278 kts | 150° |
| 2026-05-03 23:51 | 48.57257 | 2.23897 | 8985 ft | 281 kts | 152° |
| 2026-05-03 23:52 | 48.55561 | 2.25400 | 9813 ft | 284 kts | 154° |
| 2026-05-03 23:52 | 48.53810 | 2.26872 | 10341 ft | 297 kts | 155° |
| 2026-05-03 23:52 | 48.51920 | 2.28400 | 10544 ft | 320 kts | 155° |
| 2026-05-03 23:52 | 48.49877 | 2.30011 | 10731 ft | 341 kts | 155° |
| 2026-05-03 23:53 | 48.47755 | 2.31588 | 11267 ft | 347 kts | 161° |
| 2026-05-03 23:53 | 48.45466 | 2.32759 | 11947 ft | 349 kts | 165° |
| 2026-05-03 23:53 | 48.43145 | 2.33877 | 12648 ft | 352 kts | 165° |
| 2026-05-03 23:53 | 48.40799 | 2.35005 | 13328 ft | 355 kts | 165° |
| 2026-05-03 23:54 | 48.38434 | 2.36144 | 13953 ft | 359 kts | 165° |
| 2026-05-03 23:54 | 48.36044 | 2.37297 | 14557 ft | 362 kts | 165° |
| 2026-05-03 23:54 | 48.33636 | 2.38459 | 15164 ft | 365 kts | 165° |
| 2026-05-03 23:54 | 48.31212 | 2.39629 | 15760 ft | 367 kts | 166° |
| 2026-05-03 23:55 | 48.28774 | 2.40807 | 16370 ft | 370 kts | 166° |
| 2026-05-03 23:55 | 48.26315 | 2.42032 | 16967 ft | 373 kts | 165° |
| 2026-05-03 23:55 | 48.23856 | 2.43323 | 17555 ft | 376 kts | 165° |
| 2026-05-03 23:55 | 48.21385 | 2.44657 | 18152 ft | 379 kts | 165° |
| 2026-05-03 23:56 | 48.18898 | 2.46010 | 18680 ft | 381 kts | 165° |
| 2026-05-03 23:56 | 48.16399 | 2.47366 | 19240 ft | 382 kts | 165° |
| 2026-05-03 23:56 | 48.13893 | 2.48715 | 19800 ft | 384 kts | 165° |
| 2026-05-03 23:56 | 48.11375 | 2.50060 | 20354 ft | 385 kts | 164° |
| 2026-05-03 23:57 | 48.08845 | 2.51401 | 20896 ft | 386 kts | 164° |
| 2026-05-03 23:57 | 48.06308 | 2.52717 | 21423 ft | 386 kts | 165° |
| 2026-05-03 23:57 | 48.03797 | 2.53970 | 21924 ft | 387 kts | 165° |
| 2026-05-03 23:57 | 48.01223 | 2.55221 | 22381 ft | 389 kts | 165° |
| 2026-05-03 23:58 | 47.98626 | 2.56472 | 22802 ft | 392 kts | 165° |
| 2026-05-03 23:58 | 47.96020 | 2.57730 | 23207 ft | 395 kts | 164° |
| 2026-05-03 23:58 | 47.93395 | 2.59010 | 23619 ft | 398 kts | 164° |
| 2026-05-03 23:58 | 47.90758 | 2.60305 | 23975 ft | 400 kts | 164° |
| 2026-05-03 23:59 | 47.88116 | 2.61606 | 24322 ft | 401 kts | 165° |
| 2026-05-03 23:59 | 47.85453 | 2.62914 | 24671 ft | 403 kts | 165° |
| 2026-05-03 23:59 | 47.82778 | 2.64226 | 25012 ft | 405 kts | 165° |
| 2026-05-03 23:59 | 47.80095 | 2.65542 | 25351 ft | 406 kts | 165° |
| 2026-05-04 00:00 | 47.77408 | 2.66861 | 25682 ft | 408 kts | 165° |
| 2026-05-04 00:00 | 47.74697 | 2.68189 | 25931 ft | 411 kts | 165° |
| 2026-05-04 00:00 | 47.72000 | 2.69505 | 26196 ft | 414 kts | 165° |
| 2026-05-04 00:00 | 47.69219 | 2.70858 | 26510 ft | 416 kts | 166° |
| 2026-05-04 00:01 | 47.66487 | 2.72183 | 26817 ft | 418 kts | 166° |
| 2026-05-04 00:01 | 47.63727 | 2.73520 | 27119 ft | 419 kts | 166° |
| 2026-05-04 00:01 | 47.60941 | 2.74870 | 27427 ft | 421 kts | 166° |
| 2026-05-04 00:01 | 47.58160 | 2.76217 | 27708 ft | 422 kts | 166° |
| 2026-05-04 00:02 | 47.55359 | 2.77573 | 27982 ft | 423 kts | 166° |
| 2026-05-04 00:02 | 47.52559 | 2.78933 | 28278 ft | 424 kts | 166° |
| 2026-05-04 00:02 | 47.49752 | 2.80295 | 28555 ft | 425 kts | 166° |
| 2026-05-04 00:02 | 47.46938 | 2.81657 | 28785 ft | 426 kts | 166° |
| 2026-05-04 00:03 | 47.44112 | 2.83018 | 29044 ft | 427 kts | 167° |
| 2026-05-04 00:03 | 47.41287 | 2.84375 | 29308 ft | 427 kts | 167° |
| 2026-05-04 00:03 | 47.38462 | 2.85732 | 29639 ft | 426 kts | 167° |
| 2026-05-04 00:03 | 47.35653 | 2.87081 | 29982 ft | 424 kts | 167° |
| 2026-05-04 00:04 | 47.32846 | 2.88428 | 30284 ft | 423 kts | 167° |
| 2026-05-04 00:04 | 47.30054 | 2.89766 | 30570 ft | 422 kts | 167° |
| 2026-05-04 00:04 | 47.27249 | 2.91106 | 30744 ft | 424 kts | 167° |
| 2026-05-04 00:04 | 47.24477 | 2.92427 | 30952 ft | 424 kts | 167° |
| 2026-05-04 00:05 | 47.22577 | 2.93332 | 31121 ft | 424 kts | 167° |
| 2026-05-04 00:05 | 47.18822 | 2.95124 | 31466 ft | 424 kts | 167° |
| 2026-05-04 00:05 | 47.16011 | 2.96469 | 31732 ft | 424 kts | 167° |
| 2026-05-04 00:05 | 47.13206 | 2.97808 | 31991 ft | 423 kts | 167° |
| 2026-05-04 00:06 | 47.10404 | 2.99120 | 32252 ft | 422 kts | 168° |
| 2026-05-04 00:06 | 47.07588 | 3.00344 | 32529 ft | 421 kts | 169° |
| 2026-05-04 00:06 | 47.04812 | 3.01478 | 32770 ft | 419 kts | 170° |
| 2026-05-04 00:06 | 47.01992 | 3.02595 | 33034 ft | 419 kts | 171° |
| 2026-05-04 00:07 | 46.99180 | 3.03705 | 33311 ft | 418 kts | 171° |
| 2026-05-04 00:07 | 46.96371 | 3.04828 | 33573 ft | 418 kts | 171° |
| 2026-05-04 00:07 | 46.93573 | 3.05961 | 33886 ft | 417 kts | 170° |
| 2026-05-04 00:07 | 46.90778 | 3.07108 | 34151 ft | 416 kts | 170° |
| 2026-05-04 00:08 | 46.87991 | 3.08259 | 34368 ft | 416 kts | 170° |
| 2026-05-04 00:08 | 46.85204 | 3.09407 | 34557 ft | 417 kts | 170° |
| 2026-05-04 00:08 | 46.82407 | 3.10557 | 34744 ft | 417 kts | 169° |
| 2026-05-04 00:08 | 46.79604 | 3.11706 | 34918 ft | 418 kts | 169° |
| 2026-05-04 00:09 | 46.73982 | 3.13997 | 34999 ft | 420 kts | 169° |
| 2026-05-04 00:09 | 46.68398 | 3.16267 | 35002 ft | 420 kts | 169° |
| 2026-05-04 00:10 | 46.62762 | 3.18549 | 35002 ft | 420 kts | 169° |
| 2026-05-04 00:10 | 46.57127 | 3.20835 | 35002 ft | 420 kts | 169° |
| 2026-05-04 00:11 | 46.51495 | 3.23123 | 34969 ft | 420 kts | 169° |
| 2026-05-04 00:11 | 46.46813 | 3.25012 | 34978 ft | 420 kts | 170° |
| 2026-05-04 00:12 | 46.41177 | 3.27270 | 34989 ft | 420 kts | 170° |
| 2026-05-04 00:12 | 46.35533 | 3.29532 | 34996 ft | 421 kts | 170° |
| 2026-05-04 00:13 | 46.29884 | 3.31820 | 34991 ft | 422 kts | 166° |
| 2026-05-04 00:13 | 46.27224 | 3.33711 | 34995 ft | 433 kts | 150° |
| 2026-05-04 00:13 | 46.24947 | 3.36656 | 35003 ft | 442 kts | 140° |
| 2026-05-04 00:14 | 46.20683 | 3.43090 | 35000 ft | 444 kts | 140° |
| 2026-05-04 00:14 | 46.16432 | 3.49570 | 35004 ft | 444 kts | 140° |
| 2026-05-04 00:15 | 46.12172 | 3.56032 | 35005 ft | 444 kts | 140° |
| 2026-05-04 00:15 | 46.07923 | 3.62421 | 35008 ft | 444 kts | 140° |
| 2026-05-04 00:16 | 46.03643 | 3.68840 | 35020 ft | 444 kts | 140° |
| 2026-05-04 00:16 | 45.99368 | 3.75252 | 35021 ft | 444 kts | 140° |
| 2026-05-04 00:17 | 45.95083 | 3.81646 | 35025 ft | 444 kts | 140° |
| 2026-05-04 00:17 | 45.90793 | 3.88027 | 35024 ft | 444 kts | 140° |
| 2026-05-04 00:18 | 45.86503 | 3.94408 | 35000 ft | 444 kts | 140° |
| 2026-05-04 00:18 | 45.82235 | 4.00746 | 35008 ft | 444 kts | 140° |
| 2026-05-04 00:19 | 45.77935 | 4.07109 | 35021 ft | 444 kts | 140° |
| 2026-05-04 00:19 | 45.73630 | 4.13461 | 35030 ft | 444 kts | 140° |
| 2026-05-04 00:20 | 45.69329 | 4.19801 | 35014 ft | 444 kts | 140° |
| 2026-05-04 00:20 | 45.65022 | 4.26134 | 35018 ft | 443 kts | 140° |
| 2026-05-04 00:21 | 45.60709 | 4.32452 | 35006 ft | 443 kts | 140° |
| 2026-05-04 00:21 | 45.56397 | 4.38751 | 35017 ft | 443 kts | 140° |
| 2026-05-04 00:22 | 45.52092 | 4.45038 | 35023 ft | 443 kts | 140° |
| 2026-05-04 00:22 | 45.47785 | 4.51325 | 35014 ft | 443 kts | 140° |
| 2026-05-04 00:23 | 45.43469 | 4.57603 | 35024 ft | 443 kts | 140° |
| 2026-05-04 00:23 | 45.39179 | 4.63817 | 35027 ft | 442 kts | 140° |
| 2026-05-04 00:24 | 45.34859 | 4.70062 | 35018 ft | 442 kts | 140° |
| 2026-05-04 00:24 | 45.30541 | 4.76298 | 35023 ft | 443 kts | 140° |
| 2026-05-04 00:25 | 45.26211 | 4.82516 | 35021 ft | 443 kts | 140° |
| 2026-05-04 00:25 | 45.21867 | 4.88731 | 35035 ft | 443 kts | 140° |
| 2026-05-04 00:26 | 45.17532 | 4.94950 | 35042 ft | 443 kts | 140° |
| 2026-05-04 00:26 | 45.13199 | 5.01155 | 35028 ft | 443 kts | 140° |
| 2026-05-04 00:27 | 45.08883 | 5.07303 | 35036 ft | 443 kts | 140° |
| 2026-05-04 00:27 | 45.04534 | 5.13491 | 35044 ft | 443 kts | 140° |
| 2026-05-04 00:28 | 45.00184 | 5.19677 | 35049 ft | 443 kts | 140° |
| 2026-05-04 00:28 | 44.95832 | 5.25828 | 35044 ft | 442 kts | 140° |
| 2026-05-04 00:29 | 44.91484 | 5.31968 | 35047 ft | 442 kts | 140° |
| 2026-05-04 00:29 | 44.87131 | 5.38117 | 35030 ft | 443 kts | 140° |
| 2026-05-04 00:30 | 44.82768 | 5.44254 | 35028 ft | 443 kts | 140° |
| 2026-05-04 00:30 | 44.78398 | 5.50385 | 35038 ft | 443 kts | 140° |
| 2026-05-04 00:31 | 44.74030 | 5.56500 | 35043 ft | 443 kts | 140° |
| 2026-05-04 00:31 | 44.69681 | 5.62580 | 35050 ft | 443 kts | 140° |
| 2026-05-04 00:32 | 44.65278 | 5.68722 | 35058 ft | 443 kts | 140° |
| 2026-05-04 00:32 | 44.60921 | 5.74780 | 35043 ft | 444 kts | 140° |
| 2026-05-04 00:33 | 44.54327 | 5.83923 | 35061 ft | 445 kts | 140° |
| 2026-05-04 00:34 | 44.49919 | 5.90008 | 35070 ft | 445 kts | 140° |
| 2026-05-04 00:34 | 44.45501 | 5.96100 | 35073 ft | 445 kts | 140° |
| 2026-05-04 00:35 | 44.41088 | 6.02183 | 35081 ft | 446 kts | 140° |
| 2026-05-04 00:35 | 44.36662 | 6.08264 | 35088 ft | 446 kts | 140° |
| 2026-05-04 00:36 | 44.32227 | 6.14345 | 35071 ft | 446 kts | 140° |
| 2026-05-04 00:36 | 44.27785 | 6.20421 | 35078 ft | 447 kts | 140° |
| 2026-05-04 00:37 | 44.23330 | 6.26497 | 35081 ft | 448 kts | 140° |
| 2026-05-04 00:37 | 44.18870 | 6.32572 | 35091 ft | 448 kts | 140° |
| 2026-05-04 00:38 | 44.14405 | 6.38645 | 35101 ft | 448 kts | 140° |
| 2026-05-04 00:38 | 44.09967 | 6.44665 | 35117 ft | 448 kts | 140° |
| 2026-05-04 00:39 | 44.05485 | 6.50739 | 35107 ft | 448 kts | 139° |
| 2026-05-04 00:39 | 44.01008 | 6.56773 | 35112 ft | 448 kts | 140° |
| 2026-05-04 00:40 | 43.96530 | 6.62794 | 35132 ft | 448 kts | 140° |
| 2026-05-04 00:40 | 43.92053 | 6.68801 | 35133 ft | 448 kts | 140° |
| 2026-05-04 00:41 | 43.87608 | 6.74770 | 35135 ft | 447 kts | 140° |
| 2026-05-04 00:41 | 43.83130 | 6.80764 | 35128 ft | 447 kts | 140° |
| 2026-05-04 00:42 | 43.78654 | 6.86732 | 35126 ft | 447 kts | 140° |
| 2026-05-04 00:42 | 43.74170 | 6.92677 | 35125 ft | 445 kts | 142° |
| 2026-05-04 00:43 | 43.69089 | 6.97316 | 35118 ft | 435 kts | 159° |
| 2026-05-04 00:43 | 43.63580 | 7.00810 | 35116 ft | 435 kts | 159° |
| 2026-05-04 00:44 | 43.58078 | 7.04323 | 35093 ft | 436 kts | 159° |
| 2026-05-04 00:44 | 43.52596 | 7.07816 | 35093 ft | 436 kts | 159° |
| 2026-05-04 00:45 | 43.47082 | 7.11313 | 35097 ft | 437 kts | 159° |
| 2026-05-04 00:45 | 43.41554 | 7.14806 | 35101 ft | 437 kts | 159° |
| 2026-05-04 00:46 | 43.36030 | 7.18296 | 35100 ft | 437 kts | 159° |
| 2026-05-04 00:46 | 43.30507 | 7.21781 | 35107 ft | 437 kts | 159° |
| 2026-05-04 00:47 | 43.24986 | 7.25261 | 35110 ft | 436 kts | 159° |
| 2026-05-04 00:47 | 43.19458 | 7.28738 | 35107 ft | 436 kts | 159° |
| 2026-05-04 00:48 | 43.13933 | 7.32208 | 35112 ft | 436 kts | 159° |
| 2026-05-04 00:48 | 43.08414 | 7.35663 | 35115 ft | 436 kts | 159° |
| 2026-05-04 00:49 | 43.02886 | 7.39107 | 35117 ft | 436 kts | 159° |
| 2026-05-04 00:49 | 42.97375 | 7.42525 | 35104 ft | 436 kts | 159° |
| 2026-05-04 00:50 | 42.91839 | 7.45964 | 35103 ft | 436 kts | 159° |
| 2026-05-04 00:50 | 42.86340 | 7.49380 | 35108 ft | 437 kts | 159° |
| 2026-05-04 00:51 | 42.80941 | 7.52728 | 35123 ft | 437 kts | 158° |
| 2026-05-04 00:51 | 42.75392 | 7.56158 | 35109 ft | 437 kts | 159° |
| 2026-05-04 00:52 | 42.69855 | 7.59571 | 35099 ft | 438 kts | 159° |
| 2026-05-04 00:52 | 42.65242 | 7.62408 | 35111 ft | 437 kts | 159° |
| 2026-05-04 00:53 | 42.59696 | 7.65816 | 35111 ft | 437 kts | 159° |
| 2026-05-04 00:53 | 42.54153 | 7.69219 | 35112 ft | 437 kts | 159° |
| 2026-05-04 00:54 | 42.48604 | 7.72620 | 35111 ft | 437 kts | 159° |
| 2026-05-04 00:54 | 42.43057 | 7.76007 | 35112 ft | 437 kts | 159° |
| 2026-05-04 00:55 | 42.37510 | 7.79402 | 35110 ft | 437 kts | 159° |
| 2026-05-04 00:55 | 42.31957 | 7.82783 | 35098 ft | 437 kts | 160° |
| 2026-05-04 00:56 | 42.26406 | 7.86151 | 35100 ft | 438 kts | 160° |
| 2026-05-04 00:56 | 42.20839 | 7.89517 | 35104 ft | 438 kts | 160° |
| 2026-05-04 00:57 | 42.15276 | 7.92885 | 35106 ft | 438 kts | 160° |
| 2026-05-04 00:57 | 42.09711 | 7.96247 | 35095 ft | 439 kts | 160° |
| 2026-05-04 00:58 | 42.04135 | 7.99614 | 35092 ft | 439 kts | 160° |
| 2026-05-04 00:58 | 41.98546 | 8.02758 | 35094 ft | 435 kts | 167° |
| 2026-05-04 00:59 | 41.92626 | 8.04126 | 35097 ft | 430 kts | 176° |
| 2026-05-04 00:59 | 41.89700 | 8.05011 | 35080 ft | 436 kts | 162° |
| 2026-05-04 00:59 | 41.86908 | 8.06646 | 35081 ft | 438 kts | 160° |
| 2026-05-04 01:00 | 41.81353 | 8.10054 | 35081 ft | 439 kts | 159° |
| 2026-05-04 01:00 | 41.75794 | 8.13499 | 35083 ft | 440 kts | 159° |
| 2026-05-04 01:01 | 41.70231 | 8.16934 | 35087 ft | 440 kts | 159° |
| 2026-05-04 01:01 | 41.64687 | 8.20335 | 35074 ft | 441 kts | 160° |
| 2026-05-04 01:02 | 41.59086 | 8.23749 | 35078 ft | 443 kts | 160° |
| 2026-05-04 01:02 | 41.53475 | 8.27170 | 35081 ft | 444 kts | 160° |
| 2026-05-04 01:03 | 41.47850 | 8.30607 | 35087 ft | 444 kts | 160° |
| 2026-05-04 01:03 | 41.42209 | 8.34034 | 35072 ft | 447 kts | 160° |
| 2026-05-04 01:04 | 41.36547 | 8.37464 | 35096 ft | 447 kts | 160° |
| 2026-05-04 01:04 | 41.30895 | 8.40888 | 35110 ft | 446 kts | 160° |
| 2026-05-04 01:05 | 41.25247 | 8.44313 | 35108 ft | 446 kts | 160° |
| 2026-05-04 01:05 | 41.19625 | 8.47721 | 35094 ft | 447 kts | 160° |
| 2026-05-04 01:06 | 41.13942 | 8.51144 | 35092 ft | 448 kts | 160° |
| 2026-05-04 01:06 | 41.08258 | 8.54537 | 35094 ft | 448 kts | 160° |
| 2026-05-04 01:07 | 41.02565 | 8.57938 | 35085 ft | 449 kts | 160° |
| 2026-05-04 01:07 | 40.96859 | 8.61358 | 35077 ft | 451 kts | 160° |
| 2026-05-04 01:08 | 40.91151 | 8.64779 | 35080 ft | 454 kts | 160° |
| 2026-05-04 01:08 | 40.85390 | 8.68219 | 35083 ft | 455 kts | 161° |
| 2026-05-04 01:09 | 40.79613 | 8.71657 | 35074 ft | 456 kts | 161° |
| 2026-05-04 01:09 | 40.73834 | 8.75097 | 35107 ft | 455 kts | 160° |
| 2026-05-04 01:10 | 40.68064 | 8.78513 | 35115 ft | 454 kts | 160° |
| 2026-05-04 01:10 | 40.62302 | 8.81915 | 35121 ft | 453 kts | 160° |
| 2026-05-04 01:11 | 40.56543 | 8.85322 | 35107 ft | 454 kts | 160° |
| 2026-05-04 01:11 | 40.50773 | 8.88733 | 35101 ft | 455 kts | 160° |
| 2026-05-04 01:12 | 40.45013 | 8.92123 | 35098 ft | 457 kts | 161° |
| 2026-05-04 01:12 | 40.39205 | 8.95530 | 35103 ft | 458 kts | 160° |
| 2026-05-04 01:13 | 40.33390 | 8.98945 | 35109 ft | 458 kts | 161° |
| 2026-05-04 01:13 | 40.27565 | 9.02349 | 35115 ft | 458 kts | 161° |
| 2026-05-04 01:14 | 40.21737 | 9.05766 | 35116 ft | 459 kts | 160° |
| 2026-05-04 01:14 | 40.15898 | 9.09186 | 35126 ft | 459 kts | 160° |
| 2026-05-04 01:15 | 40.10098 | 9.12557 | 35116 ft | 458 kts | 161° |
| 2026-05-04 01:15 | 40.04262 | 9.15952 | 35113 ft | 460 kts | 161° |
| 2026-05-04 01:16 | 39.98402 | 9.19351 | 35122 ft | 461 kts | 161° |
| 2026-05-04 01:16 | 39.92532 | 9.22735 | 35123 ft | 462 kts | 161° |
| 2026-05-04 01:17 | 39.86656 | 9.26121 | 35111 ft | 462 kts | 161° |
| 2026-05-04 01:17 | 39.80767 | 9.29512 | 35115 ft | 464 kts | 161° |
| 2026-05-04 01:18 | 39.74847 | 9.32920 | 35119 ft | 465 kts | 161° |
| 2026-05-04 01:18 | 39.68912 | 9.36333 | 35124 ft | 466 kts | 161° |
| 2026-05-04 01:19 | 39.63009 | 9.39723 | 35110 ft | 468 kts | 161° |
| 2026-05-04 01:19 | 39.57025 | 9.43142 | 35111 ft | 471 kts | 161° |
| 2026-05-04 01:20 | 39.50996 | 9.46578 | 35125 ft | 473 kts | 160° |
| 2026-05-04 01:20 | 39.44988 | 9.50005 | 35158 ft | 471 kts | 160° |
| 2026-05-04 01:21 | 39.38987 | 9.53412 | 35140 ft | 471 kts | 160° |
| 2026-05-04 01:21 | 39.32967 | 9.56835 | 35122 ft | 473 kts | 160° |
| 2026-05-04 01:22 | 39.26934 | 9.60268 | 35117 ft | 474 kts | 160° |
| 2026-05-04 01:22 | 39.20897 | 9.63684 | 35118 ft | 475 kts | 160° |
| 2026-05-04 01:23 | 39.14882 | 9.67079 | 35104 ft | 476 kts | 161° |
| 2026-05-04 01:23 | 39.08791 | 9.70516 | 35099 ft | 478 kts | 160° |
| 2026-05-04 01:24 | 39.02688 | 9.73958 | 35097 ft | 480 kts | 160° |
| 2026-05-04 01:24 | 38.96557 | 9.77401 | 35091 ft | 480 kts | 161° |
| 2026-05-04 01:25 | 38.90449 | 9.80798 | 35079 ft | 482 kts | 161° |
| 2026-05-04 01:25 | 38.84276 | 9.84243 | 35091 ft | 484 kts | 160° |
| 2026-05-04 01:26 | 38.78103 | 9.87696 | 35022 ft | 484 kts | 160° |
| 2026-05-04 01:26 | 38.75023 | 9.89418 | 34772 ft | 483 kts | 160° |
| 2026-05-04 01:26 | 38.71944 | 9.91136 | 34535 ft | 482 kts | 160° |
| 2026-05-04 01:26 | 38.68871 | 9.92848 | 34293 ft | 483 kts | 160° |
| 2026-05-04 01:27 | 38.65777 | 9.94564 | 34043 ft | 485 kts | 160° |
| 2026-05-04 01:27 | 38.62672 | 9.96282 | 33770 ft | 486 kts | 160° |
| 2026-05-04 01:27 | 38.59575 | 9.97995 | 33500 ft | 486 kts | 160° |
| 2026-05-04 01:27 | 38.56467 | 9.99717 | 33229 ft | 486 kts | 160° |
| 2026-05-04 01:28 | 38.53375 | 10.01433 | 32977 ft | 485 kts | 160° |
| 2026-05-04 01:28 | 38.50274 | 10.03153 | 32709 ft | 485 kts | 160° |
| 2026-05-04 01:28 | 38.47181 | 10.04867 | 32452 ft | 484 kts | 160° |
| 2026-05-04 01:28 | 38.44086 | 10.06575 | 32171 ft | 487 kts | 160° |
| 2026-05-04 01:29 | 38.40951 | 10.08302 | 31917 ft | 491 kts | 160° |
| 2026-05-04 01:29 | 38.37811 | 10.10029 | 31666 ft | 492 kts | 160° |
| 2026-05-04 01:29 | 38.34665 | 10.11760 | 31417 ft | 492 kts | 160° |
| 2026-05-04 01:29 | 38.31514 | 10.13497 | 31179 ft | 492 kts | 160° |
| 2026-05-04 01:30 | 38.28371 | 10.15231 | 30771 ft | 491 kts | 160° |
| 2026-05-04 01:30 | 38.25227 | 10.16962 | 29439 ft | 493 kts | 160° |
| 2026-05-04 01:30 | 38.22093 | 10.18681 | 28283 ft | 488 kts | 160° |
| 2026-05-04 01:30 | 38.19045 | 10.20346 | 27691 ft | 480 kts | 160° |
| 2026-05-04 01:31 | 38.15990 | 10.22013 | 26928 ft | 475 kts | 160° |
| 2026-05-04 01:31 | 38.12967 | 10.23667 | 26196 ft | 471 kts | 160° |
| 2026-05-04 01:31 | 38.09969 | 10.25309 | 25474 ft | 468 kts | 160° |
| 2026-05-04 01:31 | 38.06977 | 10.26901 | 24759 ft | 463 kts | 163° |
| 2026-05-04 01:32 | 38.03900 | 10.27988 | 24064 ft | 456 kts | 173° |
| 2026-05-04 01:32 | 38.00774 | 10.28419 | 23360 ft | 448 kts | 182° |
| 2026-05-04 01:32 | 37.97687 | 10.28317 | 22715 ft | 440 kts | 186° |
| 2026-05-04 01:32 | 37.94662 | 10.28166 | 22127 ft | 430 kts | 186° |
| 2026-05-04 01:33 | 37.91693 | 10.28027 | 21561 ft | 425 kts | 186° |
| 2026-05-04 01:33 | 37.88744 | 10.27891 | 21012 ft | 420 kts | 186° |
| 2026-05-04 01:33 | 37.85841 | 10.27761 | 20490 ft | 416 kts | 186° |
| 2026-05-04 01:33 | 37.82956 | 10.27632 | 19975 ft | 412 kts | 186° |
| 2026-05-04 01:34 | 37.80097 | 10.27504 | 19483 ft | 408 kts | 186° |
| 2026-05-04 01:34 | 37.77309 | 10.27375 | 19002 ft | 405 kts | 186° |
| 2026-05-04 01:34 | 37.74504 | 10.27240 | 18517 ft | 402 kts | 186° |
| 2026-05-04 01:34 | 37.71717 | 10.27104 | 17987 ft | 399 kts | 186° |
| 2026-05-04 01:35 | 37.68961 | 10.26969 | 17490 ft | 394 kts | 186° |
| 2026-05-04 01:35 | 37.66235 | 10.26834 | 17013 ft | 390 kts | 186° |
| 2026-05-04 01:35 | 37.63530 | 10.26702 | 16508 ft | 387 kts | 186° |
| 2026-05-04 01:35 | 37.61748 | 10.26615 | 16178 ft | 385 kts | 186° |
| 2026-05-04 01:36 | 37.58183 | 10.26443 | 15504 ft | 382 kts | 185° |
| 2026-05-04 01:36 | 37.55543 | 10.26317 | 14990 ft | 380 kts | 185° |
| 2026-05-04 01:36 | 37.52908 | 10.26140 | 14452 ft | 377 kts | 190° |
| 2026-05-04 01:36 | 37.50353 | 10.25471 | 13914 ft | 372 kts | 200° |
| 2026-05-04 01:37 | 37.47902 | 10.24468 | 13322 ft | 370 kts | 201° |
| 2026-05-04 01:37 | 37.45459 | 10.23470 | 12782 ft | 368 kts | 201° |
| 2026-05-04 01:37 | 37.43030 | 10.22483 | 12225 ft | 365 kts | 201° |
| 2026-05-04 01:37 | 37.41429 | 10.21833 | 11858 ft | 363 kts | 200° |
| 2026-05-04 01:38 | 37.38220 | 10.20528 | 11099 ft | 360 kts | 201° |
| 2026-05-04 01:38 | 37.35895 | 10.19583 | 10769 ft | 346 kts | 201° |
| 2026-05-04 01:38 | 37.34387 | 10.18974 | 10687 ft | 326 kts | 201° |
| 2026-05-04 01:38 | 37.31666 | 10.17879 | 10396 ft | 299 kts | 201° |
| 2026-05-04 01:39 | 37.29719 | 10.17091 | 10034 ft | 289 kts | 201° |
| 2026-05-04 01:39 | 37.28448 | 10.16573 | 9959 ft | 290 kts | 201° |
| 2026-05-04 01:39 | 37.25885 | 10.15528 | 9777 ft | 289 kts | 201° |
| 2026-05-04 01:39 | 37.24617 | 10.15012 | 9691 ft | 289 kts | 201° |
| 2026-05-04 01:40 | 37.22706 | 10.14235 | 9565 ft | 288 kts | 200° |
| 2026-05-04 01:40 | 37.20788 | 10.13459 | 9232 ft | 289 kts | 200° |
| 2026-05-04 01:40 | 37.18890 | 10.12694 | 8764 ft | 284 kts | 200° |
| 2026-05-04 01:40 | 37.17007 | 10.11936 | 8306 ft | 285 kts | 200° |
| 2026-05-04 01:41 | 37.15113 | 10.11173 | 7835 ft | 285 kts | 200° |
| 2026-05-04 01:41 | 37.13232 | 10.10413 | 7474 ft | 282 kts | 200° |
| 2026-05-04 01:41 | 37.11363 | 10.09658 | 6973 ft | 280 kts | 200° |
| 2026-05-04 01:41 | 37.09526 | 10.08916 | 6453 ft | 275 kts | 200° |
| 2026-05-04 01:42 | 37.07717 | 10.08184 | 5921 ft | 272 kts | 200° |
| 2026-05-04 01:42 | 37.05933 | 10.07464 | 5456 ft | 273 kts | 199° |
| 2026-05-04 01:42 | 37.04135 | 10.06741 | 5033 ft | 271 kts | 198° |
| 2026-05-04 01:42 | 37.02337 | 10.06019 | 4611 ft | 270 kts | 198° |
| 2026-05-04 01:43 | 37.00551 | 10.05303 | 4175 ft | 269 kts | 198° |
| 2026-05-04 01:43 | 36.98778 | 10.04594 | 3743 ft | 268 kts | 198° |
| 2026-05-04 01:43 | 36.97024 | 10.03892 | 3315 ft | 261 kts | 198° |
| 2026-05-04 01:43 | 36.95312 | 10.03203 | 2810 ft | 255 kts | 198° |
| 2026-05-04 01:44 | 36.93687 | 10.02624 | 2720 ft | 229 kts | 187° |
| 2026-05-04 01:44 | 36.92195 | 10.02833 | 2701 ft | 210 kts | 160° |
| 2026-05-04 01:44 | 36.91030 | 10.03837 | 2604 ft | 197 kts | 133° |
| 2026-05-04 01:44 | 36.90373 | 10.05234 | 2521 ft | 180 kts | 112° |
| 2026-05-04 01:45 | 36.90036 | 10.06705 | 2278 ft | 172 kts | 110° |
| 2026-05-04 01:45 | 36.89705 | 10.08094 | 2090 ft | 156 kts | 111° |
| 2026-05-04 01:45 | 36.89147 | 10.10626 | 1855 ft | 148 kts | 110° |
| 2026-05-04 01:46 | 36.88880 | 10.11858 | 1841 ft | 146 kts | 113° |
| 2026-05-04 01:46 | 36.88589 | 10.13073 | 1852 ft | 144 kts | 115° |
| 2026-05-04 01:46 | 36.88206 | 10.14211 | 1717 ft | 140 kts | 122° |
| 2026-05-04 01:46 | 36.87731 | 10.15295 | 1501 ft | 140 kts | 124° |
| 2026-05-04 01:47 | 36.87277 | 10.16347 | 1327 ft | 139 kts | 119° |
| 2026-05-04 01:47 | 36.86928 | 10.17475 | 1123 ft | 139 kts | 115° |
| 2026-05-04 01:47 | 36.86549 | 10.18574 | 862 ft | 137 kts | 119° |
| 2026-05-04 01:47 | 36.86143 | 10.19641 | 674 ft | 136 kts | 116° |
| 2026-05-04 01:48 | 36.85772 | 10.20731 | 369 ft | 137 kts | 113° |
| 2026-05-04 01:48 | 36.85417 | 10.21818 | 70 ft | 133 kts | 116° |
| 2026-05-04 01:48 | 36.85084 | 10.22801 | 33 ft | 105 kts | 114° |
| 2026-05-04 01:48 | 36.84957 | 10.23170 | 29 ft | 23 kts | 112° |
| 2026-05-04 01:49 | 36.84893 | 10.23354 | 28 ft | 23 kts | 122° |
| 2026-05-04 01:49 | 36.84784 | 10.23347 | 30 ft | 17 kts | 206° |
| 2026-05-04 01:49 | 36.84715 | 10.23247 | 30 ft | 17 kts | 279° |
| 2026-05-04 01:49 | 36.84754 | 10.23116 | 30 ft | 15 kts | 291° |
| 2026-05-04 01:50 | 36.84792 | 10.22999 | 30 ft | 14 kts | 292° |
| 2026-05-04 01:50 | 36.84827 | 10.22892 | 30 ft | 13 kts | 293° |
| 2026-05-04 01:50 | 36.84860 | 10.22796 | 31 ft | 11 kts | 293° |
| 2026-05-04 01:50 | 36.84888 | 10.22715 | 31 ft | 9 kts | 293° |
| 2026-05-04 01:51 | 36.84918 | 10.22626 | 32 ft | 18 kts | 292° |
| 2026-05-04 01:51 | 36.84973 | 10.22463 | 30 ft | 19 kts | 291° |
| 2026-05-04 01:51 | 36.84909 | 10.22371 | 31 ft | 17 kts | 196° |
| 2026-05-04 01:51 | 36.84786 | 10.22335 | 30 ft | 19 kts | 192° |
| 2026-05-04 01:52 | 36.84648 | 10.22299 | 30 ft | 21 kts | 191° |
| 2026-05-04 01:52 | 36.84508 | 10.22251 | 30 ft | 19 kts | 218° |
| 2026-05-04 01:52 | 36.84495 | 10.22097 | 30 ft | 17 kts | 250° |
| 2026-05-04 01:52 | 36.84417 | 10.21980 | 30 ft | 19 kts | 208° |
| 2026-05-04 01:53 | 36.84313 | 10.21939 | 30 ft | 10 kts | 225° |
| 2026-05-04 01:53 | 36.84315 | 10.21908 | 30 ft | 3 kts | 284° |
| 2026-05-04 01:53 | 36.84323 | 10.21866 | 30 ft | 5 kts | 282° |
| 2026-05-04 01:53 | 36.84325 | 10.21855 | 30 ft | 0 kts | 282° |